Time;durP1;ratioP1;P1;durP2;ratioP2;P2;SDS_P1;SDS_P2;PMS_P1;PMS_P2;Temp;Humidity;BMP_temperature;BMP_pressure;BME280_temperature;BME280_humidity;BME280_pressure;Samples;Min_cycle;Max_cycle;Signal;HPM_P1;HPM_P2
2021/05/14 00:00:28;;;;;;;14.07;12.43;;;18.90;50.90;;;;;;6135486;23;20151;-80
2021/05/14 00:02:54;;;;;;;16.58;13.20;;;18.90;50.90;;;;;;6135805;23;20479;-80
2021/05/14 00:05:20;;;;;;;14.05;12.10;;;18.90;51.00;;;;;;6160079;23;20159;-80
2021/05/14 00:07:48;;;;;;;16.08;12.48;;;18.90;50.90;;;;;;6135726;23;20226;-80
2021/05/14 00:10:14;;;;;;;14.35;12.23;;;18.90;50.90;;;;;;6135993;23;20487;-80
2021/05/14 00:12:40;;;;;;;16.35;13.65;;;18.90;50.90;;;;;;6160205;23;20135;-79
2021/05/14 00:15:06;;;;;;;15.52;12.77;;;18.90;51.00;;;;;;6135391;23;20237;-81
2021/05/14 00:17:34;;;;;;;14.50;12.57;;;18.90;50.90;;;;;;6160494;23;20143;-80
2021/05/14 00:19:59;;;;;;;15.07;12.95;;;18.90;50.90;;;;;;6160349;23;20138;-80
2021/05/14 00:22:25;;;;;;;14.82;12.65;;;18.80;50.90;;;;;;6160043;23;20243;-80
2021/05/14 00:24:51;;;;;;;14.30;12.13;;;18.80;51.00;;;;;;6186077;23;20174;-80
2021/05/14 00:27:16;;;;;;;15.10;13.23;;;18.80;51.00;;;;;;6186267;23;20574;-80
2021/05/14 00:29:42;;;;;;;15.80;13.10;;;18.90;51.00;;;;;;6159685;23;20463;-80
2021/05/14 00:32:08;;;;;;;16.25;13.55;;;18.80;51.00;;;;;;6185700;23;20182;-81
2021/05/14 00:34:36;;;;;;;14.50;12.65;;;18.80;51.00;;;;;;6159625;23;20609;-80
2021/05/14 00:37:03;;;;;;;15.43;13.05;;;18.90;51.00;;;;;;6186418;23;20182;-79
2021/05/14 00:39:29;;;;;;;15.02;12.82;;;18.80;51.00;;;;;;6185837;23;20142;-80
2021/05/14 00:41:55;;;;;;;14.45;12.48;;;18.80;51.00;;;;;;6185884;23;20185;-80
2021/05/14 00:44:27;;;;;;;15.02;12.55;;;18.80;51.10;;;;;;6185833;23;20595;-80
2021/05/14 00:46:53;;;;;;;15.50;13.00;;;18.80;51.00;;;;;;6159652;23;20164;-80
2021/05/14 00:49:19;;;;;;;15.93;13.05;;;18.80;51.00;;;;;;6159796;23;20504;-81
2021/05/14 00:51:45;;;;;;;16.20;13.43;;;18.80;51.00;;;;;;6159323;23;20167;-81
2021/05/14 00:54:12;;;;;;;15.55;13.20;;;18.80;51.00;;;;;;6173478;23;20135;-80
2021/05/14 00:56:38;;;;;;;14.93;13.00;;;18.80;51.00;;;;;;6159285;23;20222;-80
2021/05/14 00:59:04;;;;;;;17.13;13.90;;;18.80;51.00;;;;;;6185871;23;20191;-81
2021/05/14 01:01:31;;;;;;;15.15;12.90;;;18.80;51.00;;;;;;6185991;23;20139;-80
2021/05/14 01:03:57;;;;;;;17.00;13.55;;;18.80;51.10;;;;;;6159370;23;20249;-80
2021/05/14 01:06:24;;;;;;;16.17;13.55;;;18.80;51.70;;;;;;6135093;23;20252;-80
2021/05/14 01:08:50;;;;;;;14.75;12.30;;;18.80;51.10;;;;;;6160125;23;20142;-81
2021/05/14 01:11:17;;;;;;;15.27;13.07;;;18.80;51.10;;;;;;6135271;23;20231;-80
2021/05/14 01:13:44;;;;;;;16.05;13.25;;;18.80;51.20;;;;;;6185785;23;20571;-80
2021/05/14 01:16:10;;;;;;;15.48;13.20;;;18.80;51.10;;;;;;6135249;23;20185;-81
2021/05/14 01:18:37;;;;;;;16.02;13.05;;;18.80;51.20;;;;;;6185676;23;20136;-81
2021/05/14 01:21:03;;;;;;;16.17;13.43;;;18.80;51.20;;;;;;6187804;23;20131;-81
2021/05/14 01:23:29;;;;;;;15.88;13.38;;;18.80;51.10;;;;;;6161360;23;20163;-80
2021/05/14 01:25:56;;;;;;;17.25;14.10;;;18.80;51.20;;;;;;6161545;23;20254;-80
2021/05/14 01:28:22;;;;;;;16.10;13.30;;;18.80;51.20;;;;;;6187871;23;20134;-80
2021/05/14 01:30:49;;;;;;;15.35;13.07;;;18.80;51.20;;;;;;6187645;23;20135;-80
2021/05/14 01:33:16;;;;;;;15.02;12.90;;;18.80;51.20;;;;;;6187296;23;20190;-80
2021/05/14 01:35:42;;;;;;;16.23;13.52;;;18.80;51.20;;;;;;6161223;23;20139;-80
2021/05/14 01:38:09;;;;;;;15.70;12.93;;;18.80;51.20;;;;;;6187514;23;20141;-79
2021/05/14 01:40:36;;;;;;;16.50;13.43;;;18.80;51.20;;;;;;6187737;23;20131;-80
2021/05/14 01:43:02;;;;;;;15.10;13.13;;;18.80;51.20;;;;;;6136582;23;20155;-80
2021/05/14 01:45:28;;;;;;;16.23;13.70;;;18.80;51.20;;;;;;6160899;23;20610;-80
2021/05/14 01:47:55;;;;;;;15.38;13.57;;;18.80;51.20;;;;;;6187551;23;20174;-80
2021/05/14 01:50:21;;;;;;;15.43;13.02;;;18.80;51.20;;;;;;6187337;23;20589;-80
2021/05/14 01:52:48;;;;;;;16.58;13.68;;;18.80;51.20;;;;;;6161869;23;20139;-80
2021/05/14 01:55:15;;;;;;;16.33;13.88;;;18.80;51.30;;;;;;6137338;23;20150;-80
2021/05/14 01:57:42;;;;;;;15.48;13.43;;;18.80;51.20;;;;;;6136803;23;20196;-80
2021/05/14 02:00:11;;;;;;;16.50;13.70;;;18.80;51.20;;;;;;6137037;23;20154;-81
2021/05/14 02:02:38;;;;;;;16.48;13.95;;;18.80;51.20;;;;;;6136682;23;20143;-79
2021/05/14 02:05:06;;;;;;;16.23;13.52;;;18.80;51.30;;;;;;6136720;23;20595;-80
2021/05/14 02:07:32;;;;;;;15.75;13.50;;;18.80;51.20;;;;;;6136290;23;20151;-81
2021/05/14 02:09:59;;;;;;;15.93;13.38;;;18.70;51.30;;;;;;6137354;23;20143;-81
2021/05/14 02:12:25;;;;;;;16.42;13.63;;;18.70;51.30;;;;;;6136216;23;20197;-80
2021/05/14 02:14:52;;;;;;;16.02;13.57;;;18.80;51.40;;;;;;6161034;23;20131;-80
2021/05/14 02:17:18;;;;;;;16.23;13.60;;;18.80;51.30;;;;;;6187264;23;20135;-81
2021/05/14 02:19:45;;;;;;;17.02;13.70;;;18.80;51.20;;;;;;6187385;23;20219;-80
2021/05/14 02:22:10;;;;;;;16.10;13.52;;;18.80;51.20;;;;;;6187464;23;20681;-81
2021/05/14 02:24:36;;;;;;;15.65;13.52;;;18.80;51.20;;;;;;6136163;23;20202;-80
2021/05/14 02:27:03;;;;;;;16.95;14.50;;;18.80;51.20;;;;;;6161174;23;20138;-80
2021/05/14 02:29:33;;;;;;;16.05;13.65;;;18.80;51.30;;;;;;6161224;23;20131;-80
2021/05/14 02:31:59;;;;;;;15.05;13.07;;;18.80;51.30;;;;;;6186314;23;20218;-80
2021/05/14 02:34:24;;;;;;;16.35;13.57;;;18.80;51.40;;;;;;6187476;23;20523;-80
2021/05/14 02:36:51;;;;;;;16.30;13.77;;;18.70;51.40;;;;;;6136124;23;20139;-81
2021/05/14 02:39:18;;;;;;;16.92;13.82;;;18.70;51.30;;;;;;6186886;23;20135;-80
2021/05/14 02:41:45;;;;;;;15.80;13.02;;;18.70;51.40;;;;;;6187208;23;20131;-80
2021/05/14 02:44:12;;;;;;;16.13;13.27;;;18.70;51.40;;;;;;6136495;23;20174;-80
2021/05/14 02:46:38;;;;;;;17.27;14.25;;;18.70;51.40;;;;;;6161152;23;20162;-80
2021/05/14 02:49:05;;;;;;;16.45;13.85;;;18.70;51.40;;;;;;6135971;23;20146;-80
2021/05/14 02:51:32;;;;;;;16.08;13.35;;;18.70;51.40;;;;;;6186892;23;20131;-80
2021/05/14 02:53:59;;;;;;;16.98;14.35;;;18.70;51.40;;;;;;6187030;23;20146;-80
2021/05/14 02:56:29;;;;;;;16.95;14.45;;;18.70;51.40;;;;;;6160393;23;20131;-80
2021/05/14 02:58:55;;;;;;;17.65;14.00;;;18.70;51.50;;;;;;6136187;23;20455;-80
2021/05/14 03:01:22;;;;;;;17.98;14.57;;;18.70;51.50;;;;;;6160429;23;20617;-80
2021/05/14 03:03:47;;;;;;;18.20;14.65;;;18.70;51.50;;;;;;6135703;23;20174;-81
2021/05/14 03:06:13;;;;;;;17.08;14.25;;;18.70;51.50;;;;;;6160317;23;20530;-80
2021/05/14 03:08:39;;;;;;;16.45;13.63;;;18.70;51.60;;;;;;6160478;23;20127;-79
2021/05/14 03:11:06;;;;;;;17.55;14.10;;;18.70;51.60;;;;;;6136093;23;20143;-80
2021/05/14 03:13:33;;;;;;;17.60;14.15;;;18.70;51.50;;;;;;6136681;23;20226;-80
2021/05/14 03:16:00;;;;;;;17.35;14.32;;;18.70;51.60;;;;;;6135447;23;20147;-80
2021/05/14 03:18:26;;;;;;;15.82;13.15;;;18.70;51.60;;;;;;6136103;23;20452;-80
2021/05/14 03:20:54;;;;;;;17.48;14.07;;;18.70;51.60;;;;;;6160708;23;20135;-80
2021/05/14 03:23:21;;;;;;;17.85;14.57;;;18.70;51.60;;;;;;6160364;23;20594;-80
2021/05/14 03:25:47;;;;;;;16.00;13.50;;;18.70;51.60;;;;;;6186669;23;20139;-79
2021/05/14 03:28:14;;;;;;;17.55;13.98;;;18.70;51.60;;;;;;6160138;23;20205;-80
2021/05/14 03:30:40;;;;;;;16.90;14.18;;;18.70;51.60;;;;;;6160187;23;20189;-80
2021/05/14 03:33:07;;;;;;;17.73;14.55;;;18.70;51.60;;;;;;6159992;23;20212;-80
2021/05/14 03:35:33;;;;;;;17.88;14.48;;;18.60;51.60;;;;;;6135938;23;20169;-80
2021/05/14 03:37:59;;;;;;;16.60;14.02;;;18.70;51.60;;;;;;6135835;23;20151;-80
2021/05/14 03:42:59;;;;;;;16.70;14.32;;;18.70;51.70;;;;;;6161669;23;20455;-80
2021/05/14 03:45:25;;;;;;;16.73;14.00;;;18.60;51.70;;;;;;6135245;23;20185;-80
2021/05/14 03:47:56;;;;;;;17.17;13.70;;;18.70;51.70;;;;;;6160230;23;20139;-81
2021/05/14 03:50:24;;;;;;;19.15;14.95;;;18.70;51.70;;;;;;6135863;23;20138;-81
2021/05/14 03:52:53;;;;;;;16.95;14.27;;;18.70;51.70;;;;;;6136077;23;20153;-80
2021/05/14 03:55:20;;;;;;;17.17;14.25;;;18.70;51.80;;;;;;6135443;23;20586;-80
2021/05/14 03:57:47;;;;;;;17.63;13.98;;;18.70;51.70;;;;;;6135546;23;20147;-79
2021/05/14 04:00:14;;;;;;;16.20;13.50;;;18.60;51.70;;;;;;6186562;23;20139;-80
2021/05/14 04:02:41;;;;;;;17.27;14.35;;;18.70;51.80;;;;;;6160616;23;20150;-80
2021/05/14 04:05:09;;;;;;;16.50;13.70;;;18.70;51.70;;;;;;6160547;23;20489;-80
2021/05/14 04:07:36;;;;;;;16.33;13.50;;;18.60;51.70;;;;;;6160403;23;20151;-80
2021/05/14 04:10:18;;;;;;;16.50;13.57;;;18.70;51.80;;;;;;6187075;23;20506;-80
2021/05/14 04:15:29;;;;;;;17.90;14.48;;;18.70;51.80;;;;;;6155516;23;20633;-80
2021/05/14 04:17:54;;;;;;;18.05;13.98;;;18.60;51.90;;;;;;6135397;23;20154;-80
2021/05/14 04:20:20;;;;;;;17.55;14.68;;;18.60;52.00;;;;;;6135600;23;20269;-80
2021/05/14 04:22:46;;;;;;;17.73;14.57;;;18.60;52.20;;;;;;6135593;23;20177;-80
2021/05/14 04:25:12;;;;;;;17.58;14.68;;;18.60;52.30;;;;;;6135932;23;20181;-80
2021/05/14 04:27:39;;;;;;;17.92;14.25;;;18.60;52.40;;;;;;6135255;23;20147;-80
2021/05/14 04:30:05;;;;;;;17.38;13.98;;;18.60;52.50;;;;;;6135360;23;20201;-79
2021/05/14 04:32:31;;;;;;;16.60;14.02;;;18.60;52.50;;;;;;6159785;23;20592;-80
2021/05/14 04:34:56;;;;;;;17.02;13.52;;;18.60;52.40;;;;;;6135853;23;20171;-80
2021/05/14 04:37:22;;;;;;;18.85;15.40;;;18.60;52.60;;;;;;6111311;23;20220;-80
2021/05/14 04:39:48;;;;;;;17.83;14.63;;;18.60;52.60;;;;;;6160302;23;20225;-80
2021/05/14 04:42:14;;;;;;;17.15;13.93;;;18.60;52.70;;;;;;6111184;23;20158;-80
2021/05/14 04:44:40;;;;;;;17.08;13.82;;;18.60;52.80;;;;;;6134986;23;20179;-80
2021/05/14 04:47:05;;;;;;;17.80;14.25;;;18.60;52.90;;;;;;6160117;23;20163;-80
2021/05/14 04:49:31;;;;;;;17.42;14.40;;;18.50;52.90;;;;;;6111549;23;20146;-80
2021/05/14 04:51:57;;;;;;;18.17;14.93;;;18.60;52.90;;;;;;6135335;23;20486;-80
2021/05/14 04:54:23;;;;;;;17.27;14.30;;;18.60;53.00;;;;;;6136108;23;20143;-80
2021/05/14 04:56:49;;;;;;;17.08;14.60;;;18.60;53.00;;;;;;6135516;23;20139;-80
2021/05/14 04:59:15;;;;;;;17.55;14.38;;;18.60;53.00;;;;;;6135647;23;20657;-80
2021/05/14 05:01:41;;;;;;;17.83;14.60;;;18.60;53.00;;;;;;6135614;23;20169;-80
2021/05/14 05:04:07;;;;;;;17.52;14.52;;;18.60;53.00;;;;;;6159935;23;20607;-80
2021/05/14 05:06:33;;;;;;;18.70;14.93;;;18.60;53.10;;;;;;6137788;23;20566;-81
2021/05/14 05:08:59;;;;;;;17.40;14.43;;;18.60;53.20;;;;;;6186708;23;20135;-80
2021/05/14 05:11:26;;;;;;;18.17;14.35;;;18.60;53.10;;;;;;6186173;23;20642;-81
2021/05/14 05:13:51;;;;;;;18.30;14.70;;;18.60;53.10;;;;;;6135941;23;20186;-80
2021/05/14 05:16:18;;;;;;;16.92;13.95;;;18.60;53.30;;;;;;6160385;23;20155;-80
2021/05/14 05:18:43;;;;;;;17.38;14.57;;;18.60;53.30;;;;;;6186420;23;20131;-80
2021/05/14 05:21:10;;;;;;;18.20;14.82;;;18.60;53.30;;;;;;6184729;23;20142;-81
2021/05/14 05:23:36;;;;;;;16.90;14.27;;;18.50;53.30;;;;;;6186508;23;20241;-81
2021/05/14 05:26:02;;;;;;;18.33;14.60;;;18.60;53.40;;;;;;6160012;23;20154;-80
2021/05/14 05:28:30;;;;;;;18.45;14.85;;;18.50;53.30;;;;;;6135081;23;20143;-80
2021/05/14 05:30:57;;;;;;;17.73;14.93;;;18.50;53.30;;;;;;6159458;23;20236;-80
2021/05/14 05:33:23;;;;;;;17.90;14.82;;;18.60;53.30;;;;;;6159232;23;20521;-80
2021/05/14 05:35:48;;;;;;;18.60;15.25;;;18.60;53.30;;;;;;6159710;23;20159;-80
2021/05/14 05:38:19;;;;;;;18.05;14.77;;;18.60;53.30;;;;;;6159858;23;20135;-80
2021/05/14 05:40:45;;;;;;;18.38;14.80;;;18.60;53.40;;;;;;6186155;23;20139;-80
2021/05/14 05:43:12;;;;;;;17.70;14.93;;;18.60;53.40;;;;;;6186632;23;20139;-81
2021/05/14 05:45:39;;;;;;;18.52;14.90;;;18.60;53.40;;;;;;6134710;23;20174;-80
2021/05/14 05:48:08;;;;;;;18.40;14.90;;;18.60;53.40;;;;;;6158750;23;20496;-80
2021/05/14 05:50:38;;;;;;;17.88;13.98;;;18.60;53.30;;;;;;6186144;23;20181;-80
2021/05/14 05:53:11;;;;;;;18.10;15.05;;;18.60;53.30;;;;;;6186680;23;20142;-80
2021/05/14 05:55:37;;;;;;;16.98;13.98;;;18.60;53.30;;;;;;6160211;23;20135;-82
2021/05/14 05:58:11;;;;;;;18.13;14.75;;;18.60;53.30;;;;;;6159892;23;20164;-80
2021/05/14 06:00:37;;;;;;;17.10;14.00;;;18.60;53.30;;;;;;6186683;23;20142;-80
2021/05/14 06:03:06;;;;;;;18.83;14.10;;;18.60;53.40;;;;;;6135737;23;20243;-80
2021/05/14 06:05:32;;;;;;;17.48;14.65;;;18.60;53.40;;;;;;6136314;23;20200;-81
2021/05/14 06:08:00;;;;;;;18.05;14.38;;;18.60;53.50;;;;;;6137438;23;20146;-80
2021/05/14 06:10:26;;;;;;;18.50;14.98;;;18.60;53.50;;;;;;6137012;23;20154;-80
2021/05/14 06:12:54;;;;;;;18.38;14.55;;;18.60;53.40;;;;;;6136976;23;20470;-80
2021/05/14 06:15:20;;;;;;;17.80;14.48;;;18.60;53.50;;;;;;6137417;23;20205;-79
2021/05/14 06:17:46;;;;;;;17.90;14.85;;;18.60;53.50;;;;;;6136815;23;20157;-80
2021/05/14 06:20:15;;;;;;;16.27;14.02;;;18.60;53.50;;;;;;6136896;23;20226;-80
2021/05/14 06:22:42;;;;;;;18.65;15.10;;;18.60;53.60;;;;;;6138060;23;20150;-81
2021/05/14 06:25:09;;;;;;;18.95;14.93;;;18.60;53.50;;;;;;6136636;23;20598;-80
2021/05/14 06:27:35;;;;;;;17.75;14.50;;;18.60;53.50;;;;;;6136496;23;20155;-80
2021/05/14 06:30:01;;;;;;;16.98;13.88;;;18.60;53.60;;;;;;6136487;23;20155;-80
2021/05/14 06:32:35;;;;;;;17.00;14.35;;;18.60;53.60;;;;;;6136010;23;20205;-81
2021/05/14 06:35:01;;;;;;;17.60;14.65;;;18.60;53.60;;;;;;6136332;23;20233;-80
2021/05/14 06:37:30;;;;;;;18.67;14.65;;;18.60;53.60;;;;;;6112985;23;20146;-80
2021/05/14 06:39:56;;;;;;;17.38;13.98;;;18.60;53.60;;;;;;6137799;23;20158;-81
2021/05/14 06:42:23;;;;;;;17.27;14.18;;;18.50;53.60;;;;;;6137229;23;20195;-80
2021/05/14 06:44:52;;;;;;;17.80;14.65;;;18.60;53.70;;;;;;6137277;23;20638;-81
2021/05/14 06:47:17;;;;;;;18.20;14.57;;;18.60;53.60;;;;;;6136943;23;20150;-80
2021/05/14 06:49:43;;;;;;;17.33;14.60;;;18.60;53.60;;;;;;6136800;23;20247;-80
2021/05/14 06:52:12;;;;;;;17.95;14.98;;;18.60;53.70;;;;;;6136815;23;20178;-80
2021/05/14 06:54:37;;;;;;;18.02;14.30;;;18.60;53.70;;;;;;6112786;23;20152;-80
2021/05/14 06:57:04;;;;;;;18.35;14.32;;;18.50;53.70;;;;;;6136012;23;20482;-80
2021/05/14 06:59:31;;;;;;;18.20;15.02;;;18.60;53.70;;;;;;6111900;23;20142;-80
2021/05/14 07:02:00;;;;;;;17.17;14.55;;;18.60;53.70;;;;;;6136455;23;20150;-80
2021/05/14 07:04:28;;;;;;;17.25;14.32;;;18.60;53.70;;;;;;6136199;23;20179;-78
2021/05/14 07:07:03;;;;;;;18.17;14.68;;;18.60;53.70;;;;;;6136861;23;20432;-80
2021/05/14 07:09:32;;;;;;;18.92;14.40;;;18.60;53.70;;;;;;6136386;23;20173;-78
2021/05/14 07:11:58;;;;;;;18.58;15.13;;;18.60;53.80;;;;;;6136206;23;20225;-79
2021/05/14 07:14:25;;;;;;;17.63;14.35;;;18.60;53.70;;;;;;6160833;23;20146;-79
2021/05/14 07:16:52;;;;;;;19.58;15.02;;;18.50;53.70;;;;;;6135966;23;20163;-79
2021/05/14 07:19:19;;;;;;;17.40;14.50;;;18.60;53.90;;;;;;6161008;23;20210;-78
2021/05/14 07:21:46;;;;;;;17.55;14.93;;;18.60;53.90;;;;;;6137096;23;20436;-79
2021/05/14 07:24:14;;;;;;;18.92;14.60;;;18.60;53.80;;;;;;6136067;23;20602;-80
2021/05/14 07:26:40;;;;;;;17.73;14.40;;;18.60;53.80;;;;;;6135691;23;20246;-79
2021/05/14 07:29:12;;;;;;;17.55;13.80;;;18.60;53.90;;;;;;6136466;23;20610;-79
2021/05/14 07:31:38;;;;;;;17.30;14.15;;;18.60;54.00;;;;;;6135814;23;20139;-78
2021/05/14 07:34:05;;;;;;;16.55;13.70;;;18.60;54.00;;;;;;6135995;23;20166;-79
2021/05/14 07:36:32;;;;;;;17.92;14.38;;;18.60;54.10;;;;;;6160308;23;20567;-78
2021/05/14 07:38:59;;;;;;;16.95;13.63;;;18.60;53.90;;;;;;6136007;23;20331;-79
2021/05/14 07:41:25;;;;;;;16.85;13.32;;;18.60;53.90;;;;;;6135828;23;20153;-80
2021/05/14 07:43:53;;;;;;;20.58;14.52;;;18.60;53.90;;;;;;6111483;23;20188;-79
2021/05/14 07:46:19;;;;;;;18.23;14.73;;;18.60;54.70;;;;;;6160850;23;20582;-79
2021/05/14 07:48:45;;;;;;;17.77;14.55;;;18.60;53.90;;;;;;6186895;23;20131;-79
2021/05/14 07:51:13;;;;;;;17.00;13.85;;;18.60;54.00;;;;;;6160483;23;20127;-79
2021/05/14 07:53:39;;;;;;;18.10;14.35;;;18.60;54.00;;;;;;6136800;23;20162;-79
2021/05/14 07:56:05;;;;;;;17.17;13.52;;;18.60;54.00;;;;;;6162822;23;20147;-79
2021/05/14 07:58:30;;;;;;;18.23;14.60;;;18.60;54.00;;;;;;6186187;23;20206;-79
2021/05/14 08:00:56;;;;;;;17.90;13.98;;;18.60;54.00;;;;;;6186104;23;20150;-79
2021/05/14 08:03:23;;;;;;;17.80;13.77;;;18.60;54.00;;;;;;6159475;23;20139;-79
2021/05/14 08:05:50;;;;;;;18.90;15.02;;;18.60;54.00;;;;;;6186113;23;20210;-79
2021/05/14 08:08:18;;;;;;;16.95;13.60;;;18.60;54.10;;;;;;6186099;23;20135;-79
2021/05/14 08:10:44;;;;;;;16.60;13.65;;;18.60;54.00;;;;;;6135707;23;20139;-79
2021/05/14 08:13:10;;;;;;;16.77;13.50;;;18.60;54.10;;;;;;6160215;23;20147;-79
2021/05/14 08:15:35;;;;;;;17.63;14.68;;;18.60;54.20;;;;;;6185997;23;20509;-79
2021/05/14 08:18:01;;;;;;;16.70;13.98;;;18.60;54.10;;;;;;6159841;23;20162;-79
2021/05/14 08:20:27;;;;;;;18.33;14.52;;;18.70;54.20;;;;;;6160986;23;20162;-79
2021/05/14 08:22:54;;;;;;;19.60;14.48;;;18.70;54.20;;;;;;6162215;23;20135;-79
2021/05/14 08:25:20;;;;;;;17.52;14.52;;;18.60;54.10;;;;;;6186370;23;20171;-79
2021/05/14 08:27:45;;;;;;;18.50;14.57;;;18.70;54.20;;;;;;6159820;23;20213;-79
2021/05/14 08:30:12;;;;;;;16.92;13.95;;;18.70;54.10;;;;;;6185604;23;20233;-79
2021/05/14 08:32:38;;;;;;;16.85;13.95;;;18.70;54.10;;;;;;6159634;23;20660;-79
2021/05/14 08:35:05;;;;;;;19.67;14.45;;;18.60;54.10;;;;;;6135015;23;20143;-78
2021/05/14 08:37:32;;;;;;;18.77;14.02;;;18.60;54.10;;;;;;6135319;23;20138;-79
2021/05/14 08:39:57;;;;;;;17.65;13.93;;;18.60;54.20;;;;;;6159765;23;20575;-79
2021/05/14 08:42:24;;;;;;;16.58;14.10;;;18.60;54.20;;;;;;6160214;23;20131;-79
2021/05/14 08:44:50;;;;;;;17.75;14.20;;;18.60;54.20;;;;;;6160438;23;20163;-79
2021/05/14 08:47:16;;;;;;;18.75;13.75;;;18.70;54.20;;;;;;6135963;23;20456;-79
2021/05/14 08:49:44;;;;;;;17.48;14.60;;;18.60;54.30;;;;;;6135463;23;20177;-79
2021/05/14 08:52:31;;;;;;;16.10;13.35;;;18.70;54.30;;;;;;6135735;23;20159;-80
2021/05/14 08:54:59;;;;;;;17.02;13.88;;;18.70;54.40;;;;;;6160423;23;20142;-80
2021/05/14 08:57:34;;;;;;;17.48;14.02;;;18.70;54.30;;;;;;6135811;23;20245;-81
2021/05/14 09:00:04;;;;;;;17.25;13.88;;;18.70;54.40;;;;;;6136465;23;20150;-80
2021/05/14 09:02:36;;;;;;;18.13;14.43;;;18.70;54.40;;;;;;6159070;23;20170;-80
2021/05/14 09:05:29;;;;;;;18.00;14.43;;;18.70;54.30;;;;;;6159453;23;20290;-80
2021/05/14 09:07:56;;;;;;;16.98;13.98;;;18.70;54.30;;;;;;6185892;23;20210;-79
2021/05/14 09:10:24;;;;;;;17.35;13.88;;;18.60;54.40;;;;;;6135649;23;20563;-80
2021/05/14 09:12:51;;;;;;;17.20;13.57;;;18.70;54.50;;;;;;6186069;23;20131;-80
2021/05/14 09:15:30;;;;;;;17.60;13.63;;;18.70;54.40;;;;;;6160195;23;20574;-81
2021/05/14 09:18:09;;;;;;;16.17;13.45;;;18.70;54.50;;;;;;6159507;23;20123;-80
2021/05/14 09:20:39;;;;;;;17.85;14.23;;;18.70;54.40;;;;;;6159713;23;20478;-80
2021/05/14 09:23:30;;;;;;;15.63;13.43;;;18.70;54.40;;;;;;6160654;23;20178;-78
2021/05/14 09:26:15;;;;;;;17.02;13.45;;;18.70;54.40;;;;;;6181667;23;20139;-80
2021/05/14 09:28:47;;;;;;;16.88;13.57;;;18.70;54.50;;;;;;6159939;23;20162;-79
2021/05/14 09:31:34;;;;;;;17.17;14.18;;;18.70;54.70;;;;;;6160289;23;20558;-79
2021/05/14 09:34:06;;;;;;;16.90;13.50;;;18.70;54.50;;;;;;6159204;23;20249;-80
2021/05/14 09:36:33;;;;;;;17.35;13.57;;;18.70;54.50;;;;;;6135281;23;20586;-80
2021/05/14 09:39:07;;;;;;;16.50;13.65;;;18.70;54.40;;;;;;6134981;23;20155;-80
2021/05/14 09:41:43;;;;;;;16.35;13.27;;;18.70;54.60;;;;;;6160855;23;20165;-81
2021/05/14 09:44:21;;;;;;;18.52;13.50;;;18.70;54.50;;;;;;6188107;23;20250;-79
2021/05/14 09:46:54;;;;;;;15.98;13.15;;;18.70;54.60;;;;;;6162521;23;20442;-80
2021/05/14 09:49:22;;;;;;;17.15;13.98;;;18.70;54.60;;;;;;6161476;23;20135;-80
2021/05/14 09:51:52;;;;;;;15.73;13.45;;;18.70;54.50;;;;;;6135881;23;20151;-80
2021/05/14 09:54:30;;;;;;;17.55;13.32;;;18.70;54.60;;;;;;6136737;23;20157;-79
2021/05/14 09:57:21;;;;;;;15.88;13.25;;;18.70;54.60;;;;;;6187792;23;20127;-80
2021/05/14 10:00:20;;;;;;;17.80;13.82;;;18.80;54.50;;;;;;6164164;23;20218;-80
2021/05/14 10:02:48;;;;;;;16.15;12.90;;;18.80;54.60;;;;;;6159444;23;20139;-79
2021/05/14 10:05:15;;;;;;;16.48;13.18;;;18.70;54.40;;;;;;6136720;23;20182;-79
2021/05/14 10:07:42;;;;;;;16.88;14.05;;;18.70;54.70;;;;;;6137251;23;20597;-80
2021/05/14 10:10:27;;;;;;;15.82;13.00;;;18.70;54.60;;;;;;6160930;23;20138;-79
2021/05/14 10:12:54;;;;;;;16.63;13.60;;;18.70;54.50;;;;;;6134019;23;20151;-79
2021/05/14 10:15:21;;;;;;;16.58;13.52;;;18.70;54.50;;;;;;6161937;23;20135;-79
2021/05/14 10:17:48;;;;;;;16.35;13.43;;;18.70;54.60;;;;;;6161454;23;20139;-79
2021/05/14 10:20:35;;;;;;;19.55;14.25;;;18.70;54.70;;;;;;6161108;23;20127;-80
2021/05/14 10:23:02;;;;;;;16.48;13.68;;;18.70;54.70;;;;;;6133340;23;20161;-80
2021/05/14 10:25:34;;;;;;;16.67;13.38;;;18.70;54.70;;;;;;6136040;23;20250;-80
2021/05/14 10:28:29;;;;;;;15.90;12.90;;;18.80;54.80;;;;;;6187225;23;20185;-79
2021/05/14 10:30:58;;;;;;;15.50;12.60;;;18.70;54.70;;;;;;6048457;23;20215;-79
2021/05/14 10:33:42;;;;;;;16.67;12.90;;;18.80;54.70;;;;;;6096912;23;20242;-81
2021/05/14 10:36:20;;;;;;;16.08;13.18;;;18.80;54.80;;;;;;6072648;23;20149;-80
2021/05/14 10:39:31;;;;;;;16.00;13.43;;;18.80;54.70;;;;;;6097536;23;20147;-79
2021/05/14 10:42:02;;;;;;;17.92;14.35;;;18.80;54.70;;;;;;6068317;23;20158;-79
2021/05/14 10:45:01;;;;;;;16.30;13.32;;;18.80;54.70;;;;;;6045012;23;20183;-79
2021/05/14 10:47:39;;;;;;;17.33;13.13;;;18.80;54.70;;;;;;6043243;23;20153;-79
2021/05/14 10:50:54;;;;;;;16.30;13.63;;;18.80;54.80;;;;;;6067130;23;20238;-80
2021/05/14 10:53:46;;;;;;;15.95;12.65;;;18.80;54.70;;;;;;6067803;23;20224;-79
2021/05/14 10:56:12;;;;;;;15.65;12.35;;;18.80;54.80;;;;;;6043671;23;20142;-80
2021/05/14 10:58:37;;;;;;;15.82;12.82;;;18.80;55.10;;;;;;6067996;23;20188;-80
2021/05/14 11:01:49;;;;;;;17.60;13.88;;;18.80;54.90;;;;;;6067988;23;20201;-80
2021/05/14 11:04:14;;;;;;;15.82;12.88;;;18.90;54.60;;;;;;6066926;23;20177;-79
2021/05/14 11:06:44;;;;;;;17.08;13.93;;;18.90;54.60;;;;;;6073326;23;20256;-80
2021/05/14 11:09:29;;;;;;;15.32;12.23;;;18.90;54.70;;;;;;6071215;23;20137;-80
2021/05/14 11:11:58;;;;;;;16.42;13.07;;;18.90;54.60;;;;;;6048716;23;20535;-80
2021/05/14 11:14:44;;;;;;;16.20;13.00;;;18.90;54.60;;;;;;6095734;23;20141;-80
2021/05/14 11:17:36;;;;;;;14.63;12.52;;;18.90;54.60;;;;;;6059127;23;20506;-79
2021/05/14 11:20:20;;;;;;;15.75;12.57;;;18.90;54.60;;;;;;6135531;23;20149;-79
2021/05/14 11:22:47;;;;;;;16.83;13.07;;;18.90;54.60;;;;;;6160356;23;20222;-81
2021/05/14 11:25:14;;;;;;;16.30;12.85;;;18.90;54.60;;;;;;6135156;23;20178;-80
2021/05/14 11:27:56;;;;;;;16.90;13.32;;;18.90;54.60;;;;;;6135216;23;20222;-79
2021/05/14 11:30:23;;;;;;;15.43;12.80;;;18.90;54.60;;;;;;6163356;23;20214;-79
2021/05/14 11:32:51;;;;;;;15.30;12.10;;;18.90;54.70;;;;;;6160839;23;20277;-78
2021/05/14 11:35:23;;;;;;;16.80;12.93;;;18.90;54.70;;;;;;6136687;23;20158;-79
2021/05/14 11:38:01;;;;;;;14.40;12.20;;;18.90;54.70;;;;;;6161536;23;20135;-80
2021/05/14 11:40:31;;;;;;;15.07;12.63;;;18.90;54.50;;;;;;6136406;23;20146;-80
2021/05/14 11:43:06;;;;;;;14.73;12.35;;;18.90;54.60;;;;;;6135433;23;20158;-80
2021/05/14 11:45:36;;;;;;;17.52;12.70;;;18.90;54.60;;;;;;6138061;23;20227;-79
2021/05/14 11:48:12;;;;;;;14.55;11.95;;;18.90;54.60;;;;;;6139113;23;20246;-79
2021/05/14 11:50:40;;;;;;;15.63;12.07;;;18.90;54.70;;;;;;6137984;23;20151;-80
2021/05/14 11:53:08;;;;;;;18.58;12.43;;;18.90;54.60;;;;;;6138522;23;20174;-80
2021/05/14 11:55:36;;;;;;;15.45;12.52;;;18.90;54.70;;;;;;6138795;23;20162;-79
2021/05/14 11:58:03;;;;;;;16.52;12.35;;;18.90;54.90;;;;;;6162971;23;20142;-79
2021/05/14 12:00:41;;;;;;;14.18;11.35;;;18.90;54.70;;;;;;6138141;23;20173;-80
2021/05/14 12:03:19;;;;;;;14.63;11.63;;;18.90;54.70;;;;;;6138093;23;20463;-79
2021/05/14 12:05:47;;;;;;;16.85;11.63;;;18.90;54.80;;;;;;6137251;23;20174;-79
2021/05/14 12:08:23;;;;;;;18.52;12.73;;;18.90;54.60;;;;;;6161424;23;20170;-80
2021/05/14 12:10:54;;;;;;;16.80;12.30;;;19.00;55.00;;;;;;6189264;23;20150;-80
2021/05/14 12:13:23;;;;;;;15.45;12.57;;;18.90;54.90;;;;;;6140335;23;20234;-80
2021/05/14 12:16:11;;;;;;;16.50;12.68;;;18.90;55.00;;;;;;6161985;23;20225;-80
2021/05/14 12:18:48;;;;;;;17.42;12.15;;;19.00;55.00;;;;;;6162611;23;20146;-80
2021/05/14 12:21:49;;;;;;;15.52;12.68;;;18.90;55.00;;;;;;6165195;23;20459;-80
2021/05/14 12:24:37;;;;;;;14.70;12.13;;;18.90;55.10;;;;;;6186984;23;20167;-79
2021/05/14 12:27:20;;;;;;;14.55;11.43;;;18.90;55.00;;;;;;6188859;23;20139;-79
2021/05/14 12:29:47;;;;;;;14.05;11.43;;;18.90;54.90;;;;;;6162180;23;20138;-81
2021/05/14 12:32:12;;;;;;;16.52;12.63;;;19.00;55.00;;;;;;6162575;23;20225;-78
2021/05/14 12:34:39;;;;;;;14.18;11.38;;;19.00;55.00;;;;;;6163338;23;20146;-81
2021/05/14 12:37:06;;;;;;;16.58;13.20;;;19.00;55.00;;;;;;6163286;23;20151;-78
2021/05/14 12:39:46;;;;;;;15.95;12.50;;;19.00;55.10;;;;;;6139779;23;20146;-79
2021/05/14 12:42:23;;;;;;;15.98;12.02;;;19.00;55.10;;;;;;6164200;23;20197;-80
2021/05/14 12:44:53;;;;;;;17.05;11.75;;;19.00;55.00;;;;;;6165829;23;20170;-80